Time;durP1;ratioP1;P1;durP2;ratioP2;P2;SDS_P1;SDS_P2;PMS_P1;PMS_P2;Temp;Humidity;BMP_temperature;BMP_pressure;BME280_temperature;BME280_humidity;BME280_pressure;Samples;Min_cycle;Max_cycle;Signal;HPM_P1;HPM_P2
2023/09/25 00:00:49;;;;;;;6.05;2.05;;;;;;;16.52;49.78;100308.97;5054932;28;20076;-76
2023/09/25 00:03:15;;;;;;;5.93;2.15;;;;;;;16.51;49.64;100313.38;5050044;28;20100;-76
2023/09/25 00:05:41;;;;;;;8.52;2.38;;;;;;;16.48;49.71;100314.38;5069327;28;20535;-78
2023/09/25 00:08:06;;;;;;;7.40;2.03;;;;;;;16.44;49.75;100312.72;5083596;28;20035;-79
2023/09/25 00:10:32;;;;;;;7.47;2.20;;;;;;;16.43;50.20;100320.72;5090533;28;20027;-81
2023/09/25 00:12:59;;;;;;;5.72;2.03;;;;;;;16.41;49.96;100312.81;5090433;28;20048;-77
2023/09/25 00:15:25;;;;;;;6.00;1.90;;;;;;;16.40;50.13;100319.03;5090361;28;20488;-83
2023/09/25 00:17:50;;;;;;;7.47;1.95;;;;;;;16.40;50.20;100315.50;5090302;28;20110;-83
2023/09/25 00:20:19;;;;;;;8.00;2.37;;;;;;;16.40;50.26;100318.16;5089969;28;20169;-76
2023/09/25 00:22:45;;;;;;;7.97;2.60;;;;;;;16.39;50.13;100313.75;5078141;28;20179;-77
2023/09/25 00:25:11;;;;;;;6.88;2.65;;;;;;;16.39;50.17;100317.25;5069820;28;20191;-84
2023/09/25 00:27:36;;;;;;;6.77;2.37;;;;;;;16.36;50.32;100312.03;5049639;28;20031;-81
2023/09/25 00:30:08;;;;;;;6.03;2.13;;;;;;;16.34;50.20;100327.16;5049809;28;20025;-84
2023/09/25 00:32:34;;;;;;;5.85;1.95;;;;;;;16.32;50.23;100326.31;5049453;28;20297;-84
2023/09/25 00:35:05;;;;;;;5.15;2.00;;;;;;;16.30;50.53;100326.38;5050039;28;20036;-76
2023/09/25 00:37:31;;;;;;;9.73;2.15;;;;;;;16.28;50.61;100327.31;5049810;28;20385;-76
2023/09/25 00:39:58;;;;;;;6.93;2.20;;;;;;;16.24;50.57;100325.66;5049364;28;20033;-83
2023/09/25 00:42:24;;;;;;;7.82;2.30;;;;;;;16.20;50.55;100333.72;5049883;28;20023;-80
2023/09/25 00:44:49;;;;;;;6.97;2.10;;;;;;;16.16;50.74;100333.84;5052775;28;20032;-81
2023/09/25 00:47:15;;;;;;;10.05;2.13;;;;;;;16.12;50.79;100332.19;5049283;28;20025;-81
2023/09/25 00:49:40;;;;;;;6.83;2.23;;;;;;;16.07;50.95;100335.84;5049552;28;20032;-82
2023/09/25 00:52:06;;;;;;;8.27;2.20;;;;;;;16.04;51.30;100338.56;5059494;28;20074;-80
2023/09/25 00:54:33;;;;;;;7.07;2.33;;;;;;;15.99;51.35;100340.44;5069321;28;20028;-79
2023/09/25 00:57:00;;;;;;;7.00;2.23;;;;;;;15.94;51.53;100334.38;5069185;28;20032;-79
2023/09/25 00:59:26;;;;;;;6.18;2.13;;;;;;;15.90;51.84;100335.38;5065499;28;20080;-82
2023/09/25 01:01:53;;;;;;;7.22;2.20;;;;;;;15.84;51.83;100336.38;5067270;28;20488;-76
2023/09/25 01:04:18;;;;;;;6.65;2.00;;;;;;;15.81;51.97;100338.25;5069177;28;20259;-76
2023/09/25 01:06:44;;;;;;;5.53;2.00;;;;;;;15.77;52.15;100338.28;5071776;28;20251;-82
2023/09/25 01:09:12;;;;;;;6.80;2.10;;;;;;;15.73;52.24;100336.63;5089305;28;20024;-84
2023/09/25 01:11:38;;;;;;;5.95;2.05;;;;;;;15.69;52.44;100345.56;5089348;28;20031;-84
2023/09/25 01:14:03;;;;;;;7.50;2.07;;;;;;;15.62;52.72;100351.94;5089479;28;20479;-80
2023/09/25 01:16:29;;;;;;;6.53;2.03;;;;;;;15.56;52.77;100350.31;5089185;28;20020;-76
2023/09/25 01:18:54;;;;;;;6.50;1.97;;;;;;;15.56;52.87;100349.44;5089229;28;20051;-75
2023/09/25 01:21:20;;;;;;;7.40;2.07;;;;;;;15.50;53.11;100351.31;5089224;28;20060;-81
2023/09/25 01:23:45;;;;;;;8.57;2.58;;;;;;;15.47;53.06;100351.41;5069056;28;20020;-78
2023/09/25 01:26:11;;;;;;;7.40;2.40;;;;;;;15.47;52.98;100355.84;5060643;28;20076;-77
2023/09/25 01:28:36;;;;;;;6.23;1.90;;;;;;;15.43;53.27;100349.72;5049018;28;20021;-78
2023/09/25 01:31:03;;;;;;;6.50;2.05;;;;;;;15.38;53.29;100350.72;5048915;28;20056;-78
2023/09/25 01:33:28;;;;;;;8.40;2.50;;;;;;;15.35;53.49;100346.38;5030819;28;20082;-76
2023/09/25 01:35:54;;;;;;;8.27;2.22;;;;;;;15.32;53.76;100344.66;5049021;28;20025;-77
2023/09/25 01:38:19;;;;;;;7.10;2.20;;;;;;;15.29;53.98;100343.84;5049094;28;20400;-77
2023/09/25 01:40:44;;;;;;;7.43;2.10;;;;;;;15.25;54.10;100344.81;5051271;28;20051;-77
2023/09/25 01:43:10;;;;;;;9.00;2.37;;;;;;;15.24;54.09;100351.03;5049844;28;20028;-77
2023/09/25 01:45:35;;;;;;;6.23;2.10;;;;;;;15.22;54.18;100361.69;5049162;28;20095;-77
2023/09/25 01:48:00;;;;;;;6.30;1.98;;;;;;;15.21;54.20;100360.81;5048676;28;20030;-81
2023/09/25 01:50:27;;;;;;;7.30;2.20;;;;;;;15.19;54.53;100370.59;5048987;28;20608;-79
2023/09/25 01:52:59;;;;;;;7.00;2.28;;;;;;;15.18;54.96;100375.91;5065373;28;20361;-78
2023/09/25 01:55:35;;;;;;;6.90;2.00;;;;;;;15.16;54.96;100375.97;5050746;28;20028;-84
2023/09/25 01:58:01;;;;;;;8.32;1.83;;;;;;;15.13;55.43;100380.44;5050964;28;20384;-84
2023/09/25 02:00:26;;;;;;;8.37;2.20;;;;;;;15.08;55.55;100369.97;5056747;28;20043;-83
2023/09/25 02:02:51;;;;;;;6.50;2.00;;;;;;;15.06;55.78;100359.38;5048750;28;20520;-84
2023/09/25 02:05:17;;;;;;;9.60;2.57;;;;;;;15.06;55.72;100363.78;5048865;28;20025;-82
2023/09/25 02:07:42;;;;;;;9.37;2.13;;;;;;;15.06;55.89;100361.13;5051159;28;20479;-76
2023/09/25 02:10:09;;;;;;;7.87;1.93;;;;;;;15.07;56.29;100362.88;5088656;28;20021;-76
2023/09/25 02:12:34;;;;;;;6.78;1.90;;;;;;;15.06;56.19;100355.81;5088810;28;20028;-77
2023/09/25 02:15:03;;;;;;;6.82;1.80;;;;;;;15.06;56.30;100355.81;5091504;28;20074;-76
2023/09/25 02:17:29;;;;;;;6.63;2.13;;;;;;;15.05;56.08;100359.38;5092186;28;20065;-76
2023/09/25 02:22:41;;;;;;;7.25;1.85;;;;;;;14.98;56.54;100350.72;5081442;28;20445;-79
2023/09/25 02:25:08;;;;;;;6.60;1.80;;;;;;;14.94;56.56;100351.66;5072084;28;20116;-84
2023/09/25 02:27:34;;;;;;;6.28;1.83;;;;;;;14.91;56.83;100352.59;5052144;28;20104;-84
2023/09/25 02:30:00;;;;;;;7.50;2.27;;;;;;;14.90;56.63;100350.88;5051984;28;20273;-82
2023/09/25 02:32:25;;;;;;;7.30;1.80;;;;;;;14.86;56.78;100365.09;5051914;28;20108;-84
2023/09/25 02:34:51;;;;;;;5.43;1.70;;;;;;;14.82;56.92;100367.81;5052007;28;20033;-84
2023/09/25 02:37:17;;;;;;;6.13;1.85;;;;;;;14.76;56.99;100363.50;5055304;28;20024;-83
2023/09/25 02:39:42;;;;;;;7.10;1.70;;;;;;;14.75;56.92;100367.06;5051803;28;20124;-82
2023/09/25 02:42:08;;;;;;;7.38;2.10;;;;;;;14.72;57.19;100372.44;5051888;28;20029;-81
2023/09/25 02:44:33;;;;;;;8.00;1.97;;;;;;;14.67;57.23;100368.97;5051822;28;20089;-80
2023/09/25 02:46:58;;;;;;;6.33;1.60;;;;;;;14.61;57.37;100370.84;5033727;28;20408;-78
2023/09/25 02:49:24;;;;;;;6.60;2.03;;;;;;;14.58;57.29;100373.53;5051491;28;20485;-83
2023/09/25 02:51:50;;;;;;;5.60;1.87;;;;;;;14.54;57.85;100371.84;5059823;28;20058;-83
2023/09/25 02:54:15;;;;;;;6.90;2.00;;;;;;;14.52;57.95;100362.19;5071365;28;20019;-81
2023/09/25 02:56:40;;;;;;;6.50;1.60;;;;;;;14.51;57.86;100366.59;5071745;28;20024;-81
2023/09/25 02:59:06;;;;;;;8.77;2.00;;;;;;;14.49;57.83;100366.66;5070580;28;20032;-78
2023/09/25 03:01:34;;;;;;;6.85;1.95;;;;;;;14.47;58.16;100364.91;5051438;28;20037;-83
2023/09/25 03:04:00;;;;;;;8.80;1.93;;;;;;;14.45;57.98;100370.22;5051218;28;20037;-83
2023/09/25 03:06:25;;;;;;;14.70;2.37;;;;;;;14.40;57.93;100368.59;5051542;28;20029;-82
2023/09/25 03:08:50;;;;;;;6.13;1.80;;;;;;;14.38;57.97;100370.41;5090398;28;20300;-79
2023/09/25 03:11:16;;;;;;;7.87;1.80;;;;;;;14.37;57.89;100382.75;5091413;28;20111;-83
2023/09/25 03:13:42;;;;;;;7.57;2.20;;;;;;;14.33;57.97;100381.94;5091585;28;20028;-80
2023/09/25 03:16:14;;;;;;;5.85;1.52;;;;;;;14.31;58.69;100372.28;5091920;28;20513;-83
2023/09/25 03:18:40;;;;;;;6.72;1.42;;;;;;;14.27;58.39;100374.09;5091014;28;20067;-77
2023/09/25 03:21:13;;;;;;;5.33;1.70;;;;;;;14.26;58.72;100380.28;5091161;28;20059;-77
2023/09/25 03:23:39;;;;;;;7.25;2.00;;;;;;;14.24;58.51;100391.84;5071854;28;20038;-78
2023/09/25 03:26:13;;;;;;;6.65;1.80;;;;;;;14.22;58.77;100391.84;5062474;28;20029;-79
2023/09/25 03:28:38;;;;;;;6.97;1.90;;;;;;;14.20;58.63;100393.66;5050988;28;20021;-79
2023/09/25 03:31:03;;;;;;;6.80;1.90;;;;;;;14.20;58.61;100391.00;5050783;28;20049;-80
2023/09/25 03:33:29;;;;;;;7.37;2.00;;;;;;;14.18;58.72;100390.16;5054734;28;20029;-82
2023/09/25 03:35:54;;;;;;;6.60;2.00;;;;;;;14.15;58.75;100392.88;5052369;28;20468;-81
2023/09/25 03:38:19;;;;;;;7.53;1.87;;;;;;;14.11;58.39;100396.47;5050897;28;20025;-77
2023/09/25 03:40:45;;;;;;;5.30;1.57;;;;;;;14.05;58.85;100395.66;5050604;28;20025;-80
2023/09/25 03:43:10;;;;;;;5.38;1.60;;;;;;;14.02;59.06;100398.34;5050483;28;20029;-78
2023/09/25 03:45:36;;;;;;;6.27;1.90;;;;;;;13.98;58.79;100396.66;5050535;28;20500;-81
2023/09/25 03:48:01;;;;;;;6.50;1.97;;;;;;;13.97;59.02;100394.91;5050516;28;20029;-84
2023/09/25 03:50:26;;;;;;;6.60;2.00;;;;;;;13.95;59.04;100404.66;5068000;28;20112;-84
2023/09/25 03:52:55;;;;;;;5.45;1.70;;;;;;;13.93;59.07;100398.50;5054220;28;20086;-83
2023/09/25 03:55:21;;;;;;;5.87;1.80;;;;;;;13.89;59.18;100404.75;5050470;28;20032;-84
2023/09/25 03:57:46;;;;;;;6.65;1.73;;;;;;;13.86;59.20;100407.41;5050399;28;20025;-76
2023/09/25 04:00:12;;;;;;;5.47;1.70;;;;;;;13.85;59.21;100408.31;5060118;28;20028;-76
2023/09/25 04:02:38;;;;;;;7.32;1.73;;;;;;;13.86;58.77;100402.13;5070078;28;20033;-83
2023/09/25 04:05:04;;;;;;;6.77;1.77;;;;;;;13.82;59.12;100403.97;5070199;28;20032;-83
2023/09/25 04:07:29;;;;;;;6.90;1.60;;;;;;;13.80;59.25;100407.53;5078718;28;20062;-78
2023/09/25 04:09:54;;;;;;;5.13;1.70;;;;;;;13.76;59.27;100406.72;5090657;28;20031;-76
2023/09/25 04:12:20;;;;;;;7.30;1.47;;;;;;;13.73;59.34;100402.34;5090889;28;20442;-76
2023/09/25 04:14:45;;;;;;;5.70;1.50;;;;;;;13.68;59.30;100404.19;5090696;28;20060;-79
2023/09/25 04:17:11;;;;;;;7.95;2.75;;;;;;;13.67;59.42;100402.44;5090127;28;20032;-84
2023/09/25 04:19:36;;;;;;;13.87;3.03;;;;;;;13.63;59.46;100406.88;5089924;28;20034;-84
2023/09/25 04:22:06;;;;;;;6.57;1.90;;;;;;;13.60;59.62;100400.75;5084438;28;20079;-85
2023/09/25 04:24:33;;;;;;;5.63;1.95;;;;;;;13.58;59.55;100402.53;5070349;28;20024;-84
2023/09/25 04:26:58;;;;;;;7.45;1.83;;;;;;;13.55;59.43;100408.78;5055071;28;20167;-76
2023/09/25 04:29:24;;;;;;;7.40;2.20;;;;;;;13.53;59.21;100415.88;5051583;28;20104;-76
2023/09/25 04:31:49;;;;;;;6.03;1.90;;;;;;;13.48;59.49;100418.56;5051290;28;20419;-76
2023/09/25 04:34:15;;;;;;;7.20;2.03;;;;;;;13.44;59.50;100416.84;5049663;28;20122;-85
2023/09/25 04:36:41;;;;;;;6.55;1.80;;;;;;;13.40;59.60;100420.41;5049899;28;20017;-84
2023/09/25 04:39:10;;;;;;;7.30;2.13;;;;;;;13.33;60.08;100418.72;5050007;28;20025;-81
2023/09/25 04:41:35;;;;;;;6.10;1.90;;;;;;;13.28;60.01;100425.84;5049304;28;20036;-78
2023/09/25 04:44:01;;;;;;;6.15;1.88;;;;;;;13.25;59.94;100420.59;5049532;28;20021;-79
2023/09/25 04:46:28;;;;;;;7.25;1.65;;;;;;;13.23;59.53;100422.38;5064168;28;20098;-83
2023/09/25 04:48:53;;;;;;;7.03;1.97;;;;;;;13.21;60.25;100425.94;5069551;28;20035;-82
2023/09/25 04:51:20;;;;;;;6.47;1.83;;;;;;;13.15;60.26;100423.38;5066017;28;20025;-78
2023/09/25 04:53:45;;;;;;;6.43;1.70;;;;;;;13.15;60.43;100426.00;5031552;28;20223;-77
2023/09/25 04:56:18;;;;;;;7.43;2.20;;;;;;;13.11;60.85;100418.13;5049478;28;20539;-78
2023/09/25 04:58:43;;;;;;;6.73;2.07;;;;;;;13.09;60.61;100426.06;5049442;28;20028;-82
2023/09/25 05:01:09;;;;;;;6.90;1.77;;;;;;;13.07;60.61;100435.78;5067273;28;20480;-82
2023/09/25 05:03:34;;;;;;;6.73;1.90;;;;;;;13.09;60.67;100435.78;5069157;28;20090;-82
2023/09/25 05:05:59;;;;;;;6.80;1.83;;;;;;;13.07;60.70;100433.13;5069381;28;20063;-82
2023/09/25 05:08:25;;;;;;;5.20;1.90;;;;;;;13.04;60.72;100449.03;5085585;28;20030;-84
2023/09/25 05:10:51;;;;;;;7.57;2.05;;;;;;;13.03;60.77;100449.94;5089318;28;20393;-84
2023/09/25 05:13:16;;;;;;;6.50;1.90;;;;;;;13.00;60.89;100455.25;5071175;28;20028;-85
2023/09/25 05:15:42;;;;;;;6.30;2.00;;;;;;;12.97;61.01;100452.66;5089320;28;20024;-82
2023/09/25 05:18:07;;;;;;;5.73;1.87;;;;;;;12.92;61.18;100453.59;5089227;28;20031;-83
2023/09/25 05:20:32;;;;;;;6.90;1.70;;;;;;;12.83;61.43;100452.81;5089198;28;20093;-85
2023/09/25 05:22:58;;;;;;;10.67;2.30;;;;;;;12.77;61.67;100451.94;5075875;28;20021;-83
2023/09/25 05:25:24;;;;;;;7.27;1.80;;;;;;;12.75;61.91;100458.16;5067520;28;20025;-83
2023/09/25 05:27:51;;;;;;;7.07;1.88;;;;;;;12.73;61.92;100467.88;5052568;28;20032;-84
2023/09/25 05:30:17;;;;;;;7.00;1.55;;;;;;;12.66;62.54;100466.16;5049200;28;20048;-82
2023/09/25 05:32:48;;;;;;;6.30;1.92;;;;;;;12.58;63.03;100475.03;5048982;28;20458;-83
2023/09/25 05:35:14;;;;;;;7.93;1.80;;;;;;;12.51;63.31;100477.75;5065279;28;20056;-84
2023/09/25 05:37:41;;;;;;;6.03;1.90;;;;;;;12.43;63.68;100477.84;5069359;28;20085;-79
2023/09/25 05:40:10;;;;;;;9.00;2.35;;;;;;;12.34;64.70;100487.56;5069185;28;20033;-86
2023/09/25 05:42:36;;;;;;;7.70;2.00;;;;;;;12.31;64.87;100487.59;5069054;28;20031;-83
2023/09/25 05:45:01;;;;;;;7.28;1.65;;;;;;;12.27;65.21;100485.88;5069226;28;20077;-85
2023/09/25 05:47:27;;;;;;;6.93;2.40;;;;;;;12.28;64.52;100484.97;5051021;28;20104;-85
2023/09/25 05:49:52;;;;;;;7.40;1.93;;;;;;;12.27;65.12;100487.63;5053868;28;20116;-86
2023/09/25 05:52:17;;;;;;;6.17;1.80;;;;;;;12.27;64.31;100490.25;5060963;28;20029;-86
2023/09/25 05:54:43;;;;;;;6.43;1.97;;;;;;;12.26;64.55;100491.16;5052990;28;20513;-85
2023/09/25 05:57:09;;;;;;;5.63;2.00;;;;;;;12.22;65.12;100497.34;5053167;28;20017;-80
2023/09/25 05:59:35;;;;;;;6.60;2.00;;;;;;;12.19;65.57;100492.97;5058420;28;20040;-79
2023/09/25 06:02:03;;;;;;;11.13;1.87;;;;;;;12.23;65.01;100492.06;5055116;28;20036;-85
2023/09/25 06:04:29;;;;;;;6.85;1.83;;;;;;;12.32;64.42;100504.31;5052852;28;20029;-82
2023/09/25 06:06:55;;;;;;;7.63;1.63;;;;;;;12.40;64.12;100501.59;5059531;28;20030;-79
2023/09/25 06:09:21;;;;;;;6.00;1.80;;;;;;;12.70;63.34;100500.47;5092650;28;20115;-76
2023/09/25 06:11:48;;;;;;;6.78;1.90;;;;;;;13.02;62.34;100501.06;5092821;28;20082;-83
2023/09/25 06:14:13;;;;;;;6.53;1.85;;;;;;;13.29;61.41;100504.28;5092810;28;20058;-76
2023/09/25 06:16:42;;;;;;;19.67;1.97;;;;;;;13.37;61.41;100499.78;5092791;28;20050;-88
2023/09/25 06:19:08;;;;;;;8.40;2.00;;;;;;;13.44;61.09;100505.91;5092778;28;20020;-82
2023/09/25 06:21:34;;;;;;;6.73;2.17;;;;;;;13.46;61.14;100498.81;5075276;28;20493;-81
2023/09/25 06:23:59;;;;;;;10.35;2.17;;;;;;;13.59;61.10;100504.84;5052614;28;20032;-80
2023/09/25 06:26:28;;;;;;;5.97;1.63;;;;;;;13.70;60.96;100497.66;5056383;28;20025;-79
2023/09/25 06:28:54;;;;;;;5.90;1.77;;;;;;;13.82;60.66;100498.38;5072059;28;20025;-81
2023/09/25 06:31:21;;;;;;;6.40;1.90;;;;;;;13.77;60.81;100498.44;5071976;28;20055;-76
2023/09/25 06:33:47;;;;;;;6.25;1.67;;;;;;;13.63;61.30;100503.94;5072030;28;20033;-76
2023/09/25 06:36:12;;;;;;;5.80;1.80;;;;;;;13.46;61.84;100502.38;5072215;28;20025;-77
2023/09/25 06:38:38;;;;;;;6.93;1.95;;;;;;;13.37;62.05;100499.78;5071877;28;20090;-77
2023/09/25 06:41:03;;;;;;;5.90;1.57;;;;;;;13.43;62.20;100499.75;5071895;28;20055;-77
2023/09/25 06:43:28;;;;;;;5.80;1.87;;;;;;;13.66;61.46;100501.25;5036400;28;20063;-76
2023/09/25 06:45:54;;;;;;;7.10;1.97;;;;;;;13.93;60.90;100494.69;5056683;28;20112;-76
2023/09/25 06:48:19;;;;;;;7.77;1.80;;;;;;;14.13;60.63;100496.16;5061475;28;20028;-77
2023/09/25 06:50:44;;;;;;;7.73;2.07;;;;;;;14.32;60.59;100496.75;5060018;28;20354;-77
2023/09/25 06:53:10;;;;;;;7.53;2.00;;;;;;;14.58;59.98;100497.22;5061345;28;20024;-82
2023/09/25 06:55:39;;;;;;;5.83;1.90;;;;;;;14.87;59.55;100496.75;5065800;28;20060;-76
2023/09/25 06:58:04;;;;;;;7.78;2.00;;;;;;;15.15;59.02;100498.88;5071203;28;20496;-77
2023/09/25 07:00:30;;;;;;;7.97;2.20;;;;;;;15.34;58.84;100501.19;5055998;28;20075;-78
2023/09/25 07:02:56;;;;;;;7.60;1.95;;;;;;;15.42;59.23;100501.88;5049307;28;20028;-83
2023/09/25 07:05:21;;;;;;;9.00;2.33;;;;;;;15.45;59.49;100509.78;5064441;28;20123;-83
2023/09/25 07:07:47;;;;;;;6.67;2.10;;;;;;;15.56;59.42;100500.75;5075266;28;20274;-86
2023/09/25 07:10:13;;;;;;;10.18;2.20;;;;;;;15.67;59.28;100501.38;5089909;28;20107;-83
2023/09/25 07:12:38;;;;;;;8.30;2.30;;;;;;;15.81;59.06;100497.56;5070912;28;20040;-85
2023/09/25 07:15:07;;;;;;;7.63;1.73;;;;;;;15.95;58.84;100500.78;5051724;28;20524;-86
2023/09/25 07:17:34;;;;;;;8.65;1.95;;;;;;;16.13;58.31;100495.97;5034141;28;20083;-87
2023/09/25 07:19:59;;;;;;;11.20;2.28;;;;;;;16.27;58.18;100493.84;5054125;28;20043;-86
2023/09/25 07:22:27;;;;;;;6.87;2.13;;;;;;;16.43;58.13;100496.13;5059817;28;20024;-86
2023/09/25 07:24:54;;;;;;;11.00;2.40;;;;;;;16.54;58.02;100499.41;5059322;28;20639;-87
2023/09/25 07:27:19;;;;;;;8.25;2.33;;;;;;;16.59;58.23;100500.16;5051376;28;20056;-88
2023/09/25 07:29:47;;;;;;;9.93;2.40;;;;;;;16.67;57.95;100505.31;5054707;28;20056;-87
2023/09/25 07:32:13;;;;;;;6.20;2.30;;;;;;;16.75;58.24;100505.06;5050685;28;20098;-80
2023/09/25 07:34:40;;;;;;;7.97;2.20;;;;;;;16.82;58.03;100506.69;5059645;28;20476;-85
2023/09/25 07:37:05;;;;;;;9.70;2.08;;;;;;;16.94;57.89;100503.69;5064439;28;20032;-85
2023/09/25 07:39:38;;;;;;;10.67;1.93;;;;;;;17.06;57.99;100501.66;5070128;28;20039;-85
2023/09/25 07:42:04;;;;;;;8.40;2.03;;;;;;;17.21;57.50;100497.69;5070362;28;20029;-78
2023/09/25 07:44:33;;;;;;;5.77;1.70;;;;;;;17.36;57.26;100501.72;5068424;28;20634;-84
2023/09/25 07:47:06;;;;;;;7.95;1.98;;;;;;;17.51;57.15;100497.72;5070408;28;20115;-83
2023/09/25 07:49:33;;;;;;;8.50;2.30;;;;;;;17.62;57.05;100506.28;5070501;28;20424;-85
2023/09/25 07:52:00;;;;;;;7.93;2.00;;;;;;;17.65;57.09;100498.19;5060722;28;20032;-86
2023/09/25 07:54:26;;;;;;;8.15;2.00;;;;;;;17.70;56.66;100494.53;5050557;28;20055;-87
2023/09/25 07:56:52;;;;;;;5.93;1.70;;;;;;;17.82;56.79;100503.94;5050248;28;20021;-87
2023/09/25 07:59:17;;;;;;;7.72;2.38;;;;;;;17.93;56.91;100501.78;5052624;28;20021;-86
2023/09/25 08:01:42;;;;;;;8.33;2.03;;;;;;;18.08;56.60;100496.03;5069380;28;20523;-85
2023/09/25 08:04:08;;;;;;;7.47;2.10;;;;;;;18.28;56.48;100504.31;5069381;28;20021;-84
2023/09/25 08:06:33;;;;;;;7.97;1.80;;;;;;;18.32;56.17;100501.50;5056736;28;20264;-85
2023/09/25 08:08:59;;;;;;;6.90;2.07;;;;;;;18.42;56.08;100502.06;5056563;28;20024;-85
2023/09/25 08:11:26;;;;;;;9.52;1.85;;;;;;;18.60;55.91;100503.25;5049130;28;20504;-85
2023/09/25 08:13:53;;;;;;;12.57;2.58;;;;;;;18.79;55.87;100497.28;5049245;28;20032;-85
2023/09/25 08:16:21;;;;;;;7.23;2.10;;;;;;;18.99;55.30;100501.94;5052737;28;20029;-84
2023/09/25 08:18:46;;;;;;;6.80;2.10;;;;;;;19.13;55.35;100503.25;5049524;28;20113;-85
2023/09/25 08:21:12;;;;;;;7.83;2.40;;;;;;;19.18;54.90;100501.28;5049483;28;20120;-83
2023/09/25 08:23:37;;;;;;;6.88;1.85;;;;;;;19.28;55.02;100504.50;5063529;28;20029;-88
2023/09/25 08:26:05;;;;;;;7.37;2.17;;;;;;;19.44;54.84;100504.81;5049573;28;20120;-89
2023/09/25 08:28:31;;;;;;;9.10;2.30;;;;;;;19.63;54.67;100510.31;5054455;28;20493;-87
2023/09/25 08:31:00;;;;;;;6.43;1.70;;;;;;;19.76;54.72;100514.28;5072689;28;20555;-88
2023/09/25 08:33:26;;;;;;;7.47;1.90;;;;;;;19.91;54.55;100506.63;5089417;28;20153;-85
2023/09/25 08:35:52;;;;;;;7.73;2.30;;;;;;;20.03;54.56;100511.47;5078242;28;20488;-85
2023/09/25 08:38:17;;;;;;;6.90;2.10;;;;;;;20.09;53.87;100505.03;5049300;28;20264;-85
2023/09/25 08:40:49;;;;;;;7.95;2.03;;;;;;;20.12;54.48;100509.34;5049200;28;20029;-83
2023/09/25 08:43:15;;;;;;;7.40;1.70;;;;;;;20.20;54.61;100501.91;5049715;28;20021;-86
2023/09/25 08:45:43;;;;;;;7.00;1.90;;;;;;;20.37;54.04;100504.75;5049909;28;20556;-85
2023/09/25 08:48:10;;;;;;;10.52;2.13;;;;;;;20.61;53.70;100499.31;5051987;28;20028;-86
2023/09/25 08:50:39;;;;;;;6.05;1.80;;;;;;;20.71;53.62;100497.13;5051446;28;20040;-88
2023/09/25 08:53:04;;;;;;;12.80;1.90;;;;;;;20.86;53.93;100492.97;5067377;28;20603;-89
2023/09/25 08:55:31;;;;;;;7.47;1.83;;;;;;;21.11;53.55;100505.28;5069050;28;20078;-88
2023/09/25 08:57:57;;;;;;;7.53;2.00;;;;;;;21.30;53.47;100493.72;5068991;28;20024;-83
2023/09/25 09:00:23;;;;;;;9.47;2.10;;;;;;;21.42;53.15;100493.16;5057747;28;20036;-88
2023/09/25 09:02:49;;;;;;;8.85;2.10;;;;;;;21.57;53.33;100493.38;5049190;28;20056;-85
2023/09/25 09:05:14;;;;;;;10.90;2.33;;;;;;;21.69;53.40;100492.84;5049032;28;20473;-89
2023/09/25 09:07:55;;;;;;;7.28;1.60;;;;;;;21.83;52.71;100488.66;5068873;28;20138;-87
2023/09/25 09:10:20;;;;;;;9.57;1.97;;;;;;;22.07;52.89;100489.28;5090279;28;20523;-78
2023/09/25 09:12:53;;;;;;;6.97;1.65;;;;;;;22.24;52.43;100491.13;5049881;28;20032;-86
2023/09/25 09:15:28;;;;;;;8.17;1.90;;;;;;;22.37;52.54;100481.53;5056456;28;20029;-87
2023/09/25 09:17:54;;;;;;;11.73;1.98;;;;;;;22.55;52.09;100483.38;5053876;28;20038;-81
2023/09/25 09:20:22;;;;;;;7.85;1.83;;;;;;;22.67;52.27;100487.25;5057614;28;20035;-81
2023/09/25 09:22:51;;;;;;;11.82;1.90;;;;;;;22.83;52.07;100485.53;5062004;28;20029;-89
2023/09/25 09:25:24;;;;;;;6.65;1.73;;;;;;;23.05;51.71;100484.41;5060229;28;20037;-85
2023/09/25 09:27:50;;;;;;;9.20;1.90;;;;;;;23.15;51.27;100488.31;5064231;28;20023;-86
2023/09/25 09:30:25;;;;;;;10.00;1.80;;;;;;;23.14;50.91;100491.09;5060455;28;20032;-82
2023/09/25 09:32:51;;;;;;;9.17;1.70;;;;;;;23.30;50.83;100488.50;5068792;28;20056;-82
2023/09/25 09:35:27;;;;;;;7.57;1.65;;;;;;;23.38;50.80;100494.31;5061695;28;20078;-85
2023/09/25 09:37:54;;;;;;;6.75;2.10;;;;;;;23.61;50.56;100482.28;5059224;28;20481;-82
2023/09/25 09:40:24;;;;;;;8.45;1.70;;;;;;;23.71;50.13;100490.72;5061151;28;20238;-84
2023/09/25 09:42:50;;;;;;;7.63;2.00;;;;;;;23.83;50.01;100483.78;5060118;28;20496;-80
2023/09/25 09:45:17;;;;;;;5.67;1.60;;;;;;;23.89;50.19;100483.44;5075866;28;20032;-88
2023/09/25 09:47:45;;;;;;;7.63;1.80;;;;;;;23.99;49.86;100482.91;5072326;28;20039;-85
2023/09/25 09:50:12;;;;;;;12.73;2.20;;;;;;;24.16;49.58;100484.66;5067602;28;20033;-86
2023/09/25 09:52:39;;;;;;;6.05;1.70;;;;;;;24.27;49.53;100478.66;5061476;28;20025;-86
2023/09/25 09:55:10;;;;;;;9.50;2.15;;;;;;;24.43;48.75;100474.13;5063700;28;20086;-80
2023/09/25 09:57:36;;;;;;;6.57;1.80;;;;;;;24.55;48.91;100468.97;5056848;28;20028;-83
2023/09/25 10:00:05;;;;;;;8.98;2.20;;;;;;;24.71;48.38;100460.81;5078425;28;20024;-86
2023/09/25 10:02:30;;;;;;;6.30;1.70;;;;;;;24.80;48.58;100465.69;5063697;28;20033;-85
2023/09/25 10:04:57;;;;;;;7.20;2.00;;;;;;;24.98;48.03;100460.16;5062304;28;20021;-80
2023/09/25 10:07:23;;;;;;;9.50;2.10;;;;;;;25.14;47.48;100449.28;5062479;28;20815;-82
2023/09/25 10:10:05;;;;;;;7.43;2.40;;;;;;;25.17;47.79;100455.31;5061744;28;20021;-79
2023/09/25 10:12:36;;;;;;;8.13;1.95;;;;;;;25.37;47.32;100453.22;5071025;28;20043;-83
2023/09/25 10:15:04;;;;;;;7.40;1.88;;;;;;;25.50;47.39;100451.50;5066703;28;20028;-79
2023/09/25 10:17:41;;;;;;;5.95;1.70;;;;;;;25.66;47.29;100450.50;5061499;28;20101;-88
2023/09/25 10:20:41;;;;;;;6.37;2.00;;;;;;;25.82;46.98;100452.22;5069052;28;20063;-81
2023/09/25 10:23:06;;;;;;;7.93;1.95;;;;;;;26.12;46.71;100443.03;5066412;28;20577;-84
2023/09/25 10:26:04;;;;;;;7.27;2.00;;;;;;;26.11;46.26;100444.03;5051872;28;20041;-79
2023/09/25 10:28:32;;;;;;;7.40;2.10;;;;;;;26.34;45.83;100439.81;5065114;28;20032;-79
2023/09/25 10:31:02;;;;;;;6.03;2.10;;;;;;;26.53;45.44;100435.88;5045759;28;20530;-79
2023/09/25 10:33:29;;;;;;;10.70;2.33;;;;;;;26.73;44.17;100434.47;5055654;28;20106;-80
2023/09/25 10:36:00;;;;;;;5.97;2.07;;;;;;;26.67;44.18;100426.81;5052750;28;20041;-79
2023/09/25 10:38:28;;;;;;;11.13;2.20;;;;;;;26.76;44.55;100418.91;5046642;28;20041;-89
2023/09/25 10:40:55;;;;;;;6.35;2.03;;;;;;;26.92;44.21;100415.16;5051879;28;20040;-82
2023/09/25 10:43:24;;;;;;;8.68;2.33;;;;;;;26.98;43.61;100420.13;5059299;28;20035;-89
2023/09/25 10:45:52;;;;;;;8.38;2.28;;;;;;;27.14;43.45;100422.63;5068996;28;20063;-91
2023/09/25 10:48:17;;;;;;;7.90;2.17;;;;;;;27.25;43.00;100412.88;5085611;28;20027;-86
2023/09/25 10:50:44;;;;;;;7.15;2.60;;;;;;;27.39;42.34;100410.03;5054140;28;21282;-81
2023/09/25 10:53:13;;;;;;;8.13;2.30;;;;;;;27.37;42.91;100407.44;5041908;28;20064;-82
2023/09/25 10:55:39;;;;;;;10.63;2.30;;;;;;;27.55;42.29;100404.38;5048573;28;20123;-80
2023/09/25 10:58:06;;;;;;;8.07;2.40;;;;;;;27.64;41.79;100402.84;5054865;28;20025;-79
2023/09/25 11:00:34;;;;;;;7.57;2.08;;;;;;;27.69;41.63;100413.31;5064736;28;20060;-79
2023/09/25 11:03:01;;;;;;;6.97;2.10;;;;;;;27.79;40.85;100407.09;5059179;28;20017;-79
2023/09/25 11:05:28;;;;;;;6.78;2.22;;;;;;;27.89;40.50;100401.00;5055674;28;20033;-79
2023/09/25 11:07:53;;;;;;;6.67;2.13;;;;;;;27.96;40.15;100399.56;5066249;28;20048;-81
2023/09/25 11:10:19;;;;;;;7.68;2.17;;;;;;;27.99;39.88;100393.91;5063439;28;20123;-85
2023/09/25 11:12:47;;;;;;;6.27;2.20;;;;;;;28.00;38.95;100392.09;5059497;28;20044;-80
2023/09/25 11:15:17;;;;;;;9.18;2.33;;;;;;;28.00;39.32;100390.22;5059998;28;20376;-90
2023/09/25 11:17:45;;;;;;;7.07;2.23;;;;;;;28.08;39.64;100398.63;5059519;28;20115;-91
2023/09/25 11:20:18;;;;;;;7.05;2.40;;;;;;;28.28;39.20;100398.13;5061476;28;20445;-91
2023/09/25 11:22:47;;;;;;;8.35;2.35;;;;;;;28.49;38.33;100385.63;5066159;28;20088;-93
2023/09/25 11:25:17;;;;;;;7.95;2.15;;;;;;;28.55;38.28;100386.13;5061905;28;20366;-81